createdAt,value
2022-12-09T00:00:06.776Z,14.47
2022-12-09T00:02:34.173Z,14.48
2022-12-09T00:05:01.250Z,14.48
2022-12-09T00:07:28.082Z,14.48
2022-12-09T00:09:54.854Z,14.48
2022-12-09T00:12:21.574Z,14.46
2022-12-09T00:14:48.326Z,14.31
2022-12-09T00:17:15.052Z,14.31
2022-12-09T00:19:41.961Z,14.34
2022-12-09T00:22:08.691Z,14.36
2022-12-09T00:24:35.491Z,14.33
2022-12-09T00:27:02.179Z,14.30
2022-12-09T00:29:28.739Z,14.18
2022-12-09T00:31:55.494Z,14.15
2022-12-09T00:34:22.417Z,14.17
2022-12-09T00:36:49.115Z,14.05
2022-12-09T00:39:15.791Z,13.95
2022-12-09T00:41:42.628Z,13.89
2022-12-09T00:44:10.034Z,13.74
2022-12-09T00:46:37.722Z,13.80
2022-12-09T00:49:06.034Z,13.73
2022-12-09T00:51:33.006Z,13.75
2022-12-09T00:54:00.110Z,13.58
2022-12-09T00:56:28.967Z,13.62
2022-12-09T00:58:56.855Z,13.62
2022-12-09T01:01:26.104Z,13.66
2022-12-09T01:03:52.872Z,13.65
2022-12-09T01:06:23.355Z,13.61
2022-12-09T01:08:50.330Z,13.65
2022-12-09T01:11:23.338Z,13.70
2022-12-09T01:13:50.425Z,13.74
2022-12-09T01:16:18.968Z,13.66
2022-12-09T01:18:46.262Z,13.72
2022-12-09T01:21:13.429Z,13.64
2022-12-09T01:23:40.681Z,13.62
2022-12-09T01:26:08.553Z,13.65
2022-12-09T01:28:38.293Z,13.63
2022-12-09T01:31:13.411Z,13.65
2022-12-09T01:33:40.542Z,13.74
2022-12-09T01:36:14.527Z,13.74
2022-12-09T01:38:41.453Z,13.74
2022-12-09T01:41:08.196Z,13.71
2022-12-09T01:43:35.049Z,13.76
2022-12-09T01:46:01.934Z,13.78
2022-12-09T01:48:37.022Z,13.67
2022-12-09T01:51:10.679Z,13.70
2022-12-09T01:53:40.095Z,13.76
2022-12-09T01:56:12.207Z,13.81
2022-12-09T01:58:39.101Z,13.79
2022-12-09T02:01:06.544Z,13.82
2022-12-09T02:03:33.783Z,13.89
2022-12-09T02:06:00.970Z,13.91
2022-12-09T02:08:27.606Z,13.93
2022-12-09T02:11:05.079Z,13.93
2022-12-09T02:13:49.098Z,13.94
2022-12-09T02:16:21.902Z,14.00
2022-12-09T02:19:00.311Z,14.03
2022-12-09T02:21:34.028Z,14.05
2022-12-09T02:24:17.572Z,14.05
2022-12-09T02:27:05.707Z,14.08
2022-12-09T02:29:53.114Z,14.10
2022-12-09T02:32:26.548Z,14.08
2022-12-09T02:35:04.827Z,14.12
2022-12-09T02:37:52.154Z,14.17
2022-12-09T02:40:29.163Z,14.21
2022-12-09T02:42:58.212Z,14.22
2022-12-09T02:45:28.111Z,14.23
2022-12-09T02:47:58.842Z,14.25
2022-12-09T02:50:29.298Z,14.24
2022-12-09T02:52:58.902Z,14.16
2022-12-09T02:55:29.097Z,14.19
2022-12-09T02:58:00.635Z,14.26
2022-12-09T03:00:29.605Z,14.27
2022-12-09T03:03:01.460Z,14.27
2022-12-09T03:05:47.891Z,14.27
2022-12-09T03:08:33.353Z,14.16
2022-12-09T03:11:07.658Z,14.21
2022-12-09T03:13:45.068Z,14.19
2022-12-09T03:16:30.340Z,14.21
2022-12-09T03:19:19.271Z,14.20
2022-12-09T03:21:48.134Z,14.21
2022-12-09T03:24:20.936Z,14.21
2022-12-09T03:26:49.858Z,14.24
2022-12-09T03:29:21.087Z,14.14
2022-12-09T03:31:49.465Z,14.23
2022-12-09T03:34:20.141Z,14.17
2022-12-09T03:36:50.739Z,14.16
2022-12-09T03:39:24.682Z,14.22
2022-12-09T03:41:57.376Z,14.24
2022-12-09T03:44:26.828Z,14.19
2022-12-09T03:46:53.569Z,14.26
2022-12-09T03:49:20.382Z,14.27
2022-12-09T03:51:57.310Z,14.33
2022-12-09T03:54:24.275Z,14.36
2022-12-09T03:56:56.934Z,14.39
2022-12-09T03:59:28.792Z,14.38
2022-12-09T04:01:56.111Z,14.38
2022-12-09T04:04:23.578Z,14.37
2022-12-09T04:06:52.949Z,14.39
2022-12-09T04:09:20.117Z,14.33
2022-12-09T04:11:46.972Z,14.29
2022-12-09T04:14:15.785Z,14.26
2022-12-09T04:16:43.605Z,14.18
2022-12-09T04:19:10.956Z,14.16
2022-12-09T04:21:37.947Z,14.18
2022-12-09T04:24:04.922Z,14.18
2022-12-09T04:26:31.707Z,14.17
2022-12-09T04:28:58.716Z,14.18
2022-12-09T04:31:25.916Z,14.14
2022-12-09T04:33:52.704Z,14.13
2022-12-09T04:36:20.557Z,14.09
2022-12-09T04:38:47.812Z,14.11
2022-12-09T04:41:16.241Z,14.08
2022-12-09T04:43:43.434Z,14.10
2022-12-09T04:46:13.678Z,14.07
2022-12-09T04:48:41.213Z,14.08
2022-12-09T04:51:15.897Z,13.96
2022-12-09T04:53:43.422Z,13.89
2022-12-09T04:56:16.555Z,13.93
2022-12-09T04:58:44.950Z,13.94
2022-12-09T05:01:18.161Z,13.99
2022-12-09T05:03:50.289Z,14.04
2022-12-09T05:06:19.065Z,14.01
2022-12-09T05:08:46.573Z,14.08
2022-12-09T05:11:19.454Z,14.07
2022-12-09T05:13:46.588Z,14.08
2022-12-09T05:16:17.291Z,14.13
2022-12-09T05:18:46.467Z,14.13
2022-12-09T05:21:16.049Z,14.18
2022-12-09T05:23:43.766Z,14.21
2022-12-09T05:26:13.849Z,14.18
2022-12-09T05:28:41.027Z,14.19
2022-12-09T05:31:11.748Z,14.21
2022-12-09T05:33:39.612Z,14.22
2022-12-09T05:36:13.152Z,14.15
2022-12-09T05:38:41.135Z,14.09
2022-12-09T05:41:08.206Z,13.93
2022-12-09T05:43:37.079Z,13.94
2022-12-09T05:46:05.793Z,13.93
2022-12-09T05:48:33.534Z,13.88
2022-12-09T05:51:04.228Z,13.90
2022-12-09T05:53:31.525Z,13.88
2022-12-09T05:55:58.366Z,13.86
2022-12-09T05:58:25.875Z,13.82
2022-12-09T06:00:56.565Z,13.70
2022-12-09T06:03:24.476Z,13.76
2022-12-09T06:05:52.180Z,13.76
2022-12-09T06:08:19.733Z,13.70
2022-12-09T06:10:47.226Z,13.63
2022-12-09T06:13:14.723Z,13.54
2022-12-09T06:15:41.668Z,13.54
2022-12-09T06:18:08.855Z,13.50
2022-12-09T06:20:39.903Z,13.54
2022-12-09T06:23:06.742Z,13.53
2022-12-09T06:25:33.805Z,13.51
2022-12-09T06:28:00.833Z,13.50
2022-12-09T06:30:27.544Z,13.48
2022-12-09T06:32:54.410Z,13.45
2022-12-09T06:35:21.309Z,13.50
2022-12-09T06:37:52.389Z,13.47
2022-12-09T06:40:22.722Z,13.44
2022-12-09T06:42:51.238Z,13.46
2022-12-09T06:45:19.923Z,13.42
2022-12-09T06:47:47.742Z,13.21
2022-12-09T06:50:16.316Z,13.24
2022-12-09T06:52:43.570Z,13.19
2022-12-09T06:55:11.276Z,13.23
2022-12-09T06:57:38.348Z,13.24
2022-12-09T07:00:06.513Z,13.19
2022-12-09T07:02:36.700Z,13.27
2022-12-09T07:05:04.394Z,13.29
2022-12-09T07:07:31.913Z,13.41
2022-12-09T07:09:58.986Z,13.46
2022-12-09T07:12:26.060Z,13.48
2022-12-09T07:14:52.803Z,13.49
2022-12-09T07:17:20.889Z,13.48
2022-12-09T07:19:48.257Z,13.44
2022-12-09T07:22:16.076Z,13.38
2022-12-09T07:24:43.267Z,13.36
2022-12-09T07:27:19.299Z,13.34
2022-12-09T07:29:47.211Z,13.24
2022-12-09T07:32:14.829Z,13.37
2022-12-09T07:34:43.008Z,13.40
2022-12-09T07:37:09.950Z,13.37
2022-12-09T07:39:36.839Z,13.42
2022-12-09T07:42:03.847Z,13.57
2022-12-09T07:44:31.098Z,13.63
2022-12-09T07:46:58.555Z,13.70
2022-12-09T07:49:25.893Z,13.86
2022-12-09T07:51:52.861Z,13.88
2022-12-09T07:54:20.431Z,14.02
2022-12-09T07:56:47.950Z,14.21
2022-12-09T07:59:15.378Z,14.24
2022-12-09T08:01:43.312Z,14.43
2022-12-09T08:04:11.315Z,14.46
2022-12-09T08:06:39.110Z,14.48
2022-12-09T08:09:09.155Z,14.49
2022-12-09T08:11:36.783Z,14.57
2022-12-09T08:14:11.295Z,14.68
2022-12-09T08:16:40.773Z,14.75
2022-12-09T08:19:08.318Z,14.81
2022-12-09T08:21:35.848Z,14.84
2022-12-09T08:24:08.828Z,14.91
2022-12-09T08:26:37.568Z,14.89
2022-12-09T08:29:08.247Z,14.91
2022-12-09T08:31:40.597Z,14.90
2022-12-09T08:34:09.127Z,14.92
2022-12-09T08:36:37.154Z,14.93
2022-12-09T08:39:05.103Z,15.05
2022-12-09T08:41:38.530Z,15.05
2022-12-09T08:44:07.928Z,15.11
2022-12-09T08:46:36.434Z,15.18
2022-12-09T08:49:05.815Z,15.12
2022-12-09T08:51:34.193Z,14.94
2022-12-09T08:54:01.640Z,15.04
2022-12-09T08:56:29.170Z,15.22
2022-12-09T08:58:57.142Z,15.37
2022-12-09T09:01:32.367Z,15.40
2022-12-09T09:04:05.176Z,15.45
2022-12-09T09:06:32.386Z,15.55
2022-12-09T09:08:59.457Z,15.66
2022-12-09T09:11:27.154Z,15.61
2022-12-09T09:13:54.580Z,15.83
2022-12-09T09:16:23.886Z,15.92
2022-12-09T09:18:51.672Z,15.98
2022-12-09T09:21:21.705Z,16.08
2022-12-09T09:23:49.593Z,16.18
2022-12-09T09:26:19.358Z,16.25
2022-12-09T09:28:47.310Z,16.42
2022-12-09T09:31:17.622Z,16.40
2022-12-09T09:33:45.138Z,16.51
2022-12-09T09:36:15.103Z,16.60
2022-12-09T09:38:42.476Z,16.63
2022-12-09T09:41:27.888Z,16.70
2022-12-09T09:43:56.655Z,16.69
2022-12-09T09:46:42.419Z,16.76
2022-12-09T09:49:18.941Z,16.82
2022-12-09T09:51:49.246Z,16.85
2022-12-09T09:54:16.196Z,16.98
2022-12-09T09:56:53.685Z,17.03
2022-12-09T09:59:45.481Z,17.15
2022-12-09T10:02:12.657Z,17.24
2022-12-09T10:04:56.395Z,17.30
2022-12-09T10:07:28.246Z,17.39
2022-12-09T10:10:25.019Z,17.38
2022-12-09T10:13:26.500Z,17.42
2022-12-09T10:16:15.516Z,17.31
2022-12-09T10:19:07.643Z,17.50
2022-12-09T10:21:40.367Z,17.57
2022-12-09T10:24:22.223Z,17.59
2022-12-09T10:27:16.640Z,17.62
2022-12-09T10:29:55.049Z,17.70
2022-12-09T10:32:25.989Z,17.82
2022-12-09T10:34:53.421Z,17.85
2022-12-09T10:37:32.395Z,17.73
2022-12-09T10:40:20.446Z,17.91
2022-12-09T10:43:07.281Z,17.99
2022-12-09T10:46:08.418Z,18.08
2022-12-09T10:48:41.314Z,18.19
2022-12-09T10:51:14.104Z,18.20
2022-12-09T10:53:49.540Z,18.35
2022-12-09T10:56:32.478Z,18.34
2022-12-09T10:59:20.299Z,18.48
2022-12-09T11:01:52.052Z,18.55
2022-12-09T11:04:35.064Z,18.61
2022-12-09T11:07:16.882Z,18.71
2022-12-09T11:09:44.212Z,18.54
2022-12-09T11:12:27.423Z,18.65
2022-12-09T11:15:01.356Z,18.65
2022-12-09T11:17:43.122Z,18.71
2022-12-09T11:20:17.358Z,18.72
2022-12-09T11:22:46.681Z,18.81
2022-12-09T11:25:15.757Z,18.81
2022-12-09T11:27:53.819Z,18.87
2022-12-09T11:30:57.871Z,19.00
2022-12-09T11:33:37.581Z,18.94
2022-12-09T11:36:09.675Z,18.92
2022-12-09T11:38:36.298Z,19.02
2022-12-09T11:41:09.082Z,18.90
2022-12-09T11:43:43.118Z,18.99
2022-12-09T11:46:12.645Z,18.99
2022-12-09T11:48:53.715Z,19.04
2022-12-09T11:51:24.568Z,19.14
2022-12-09T11:53:54.549Z,19.07
2022-12-09T11:56:25.818Z,19.19
2022-12-09T11:59:09.011Z,19.17
2022-12-09T12:01:45.806Z,19.24
2022-12-09T12:04:16.403Z,19.25
2022-12-09T12:06:53.580Z,19.30
2022-12-09T12:09:26.725Z,19.13
2022-12-09T12:12:03.160Z,19.28
2022-12-09T12:14:30.785Z,19.25
2022-12-09T12:17:07.006Z,19.28
2022-12-09T12:19:37.317Z,19.23
2022-12-09T12:22:12.667Z,19.19
2022-12-09T12:24:54.258Z,19.28
2022-12-09T12:27:35.808Z,19.29
2022-12-09T12:30:09.215Z,19.32
2022-12-09T12:36:21.604Z,19.32
2022-12-09T12:39:27.083Z,19.40
2022-12-09T12:42:25.746Z,19.46
2022-12-09T12:45:21.341Z,19.44
2022-12-09T12:47:55.339Z,19.34
2022-12-09T12:50:49.304Z,19.44
2022-12-09T12:53:36.589Z,19.50
2022-12-09T12:56:08.744Z,19.34
2022-12-09T12:58:45.823Z,19.43
2022-12-09T13:01:36.382Z,19.55
2022-12-09T13:04:15.085Z,19.62
2022-12-09T13:06:46.629Z,19.71
2022-12-09T13:09:22.224Z,19.71
2022-12-09T13:12:15.024Z,19.74
2022-12-09T13:14:55.512Z,19.76
2022-12-09T13:17:28.279Z,19.70
2022-12-09T13:20:00.122Z,19.70
2022-12-09T13:22:50.760Z,19.73
2022-12-09T13:25:22.159Z,19.75
2022-12-09T13:27:58.207Z,19.79
2022-12-09T13:30:36.370Z,19.82
2022-12-09T13:33:30.193Z,19.74
2022-12-09T13:36:06.428Z,19.78
2022-12-09T13:38:40.624Z,19.72
2022-12-09T13:41:26.292Z,19.79
2022-12-09T13:43:58.386Z,19.80
2022-12-09T13:46:27.503Z,19.78
2022-12-09T13:48:55.225Z,19.84
2022-12-09T13:51:23.575Z,19.85
2022-12-09T13:53:53.750Z,19.78
2022-12-09T13:56:25.739Z,19.68
2022-12-09T13:58:55.458Z,19.63
2022-12-09T14:01:47.220Z,19.53
2022-12-09T14:04:25.058Z,19.42
2022-12-09T14:06:57.149Z,19.35
2022-12-09T14:09:33.467Z,19.27
2022-12-09T14:12:06.981Z,19.22
2022-12-09T14:14:34.053Z,19.22
2022-12-09T14:17:29.749Z,19.13
2022-12-09T14:20:18.177Z,19.10
2022-12-09T14:23:03.466Z,18.94
2022-12-09T14:25:33.608Z,18.95
2022-12-09T14:28:12.292Z,18.97
2022-12-09T14:31:00.743Z,18.87
2022-12-09T14:33:34.783Z,18.93
2022-12-09T14:36:06.811Z,18.99
2022-12-09T14:39:08.016Z,18.96
2022-12-09T14:41:39.264Z,18.91
2022-12-09T14:44:08.697Z,18.91
2022-12-09T14:46:37.956Z,18.88
2022-12-09T14:49:19.467Z,18.88
2022-12-09T14:51:49.723Z,18.87
2022-12-09T14:54:28.329Z,18.89
2022-12-09T14:56:57.864Z,18.86
2022-12-09T14:59:26.880Z,18.78
2022-12-09T15:02:16.948Z,18.81
2022-12-09T15:04:46.171Z,18.78
2022-12-09T15:07:21.052Z,18.69
2022-12-09T15:10:17.118Z,18.71
2022-12-09T15:12:50.244Z,18.68
2022-12-09T15:15:26.501Z,18.70
2022-12-09T15:17:55.468Z,18.64
2022-12-09T15:20:26.128Z,18.72
2022-12-09T15:22:55.530Z,18.69
2022-12-09T15:25:23.905Z,18.67
2022-12-09T15:28:05.893Z,18.58
2022-12-09T15:30:35.640Z,18.62
2022-12-09T15:33:03.238Z,18.59
2022-12-09T15:35:33.064Z,18.59
2022-12-09T15:38:06.743Z,18.56
2022-12-09T15:40:36.336Z,18.57
2022-12-09T15:43:11.807Z,18.55
2022-12-09T15:45:42.830Z,18.52
2022-12-09T15:48:13.481Z,18.49
2022-12-09T15:50:51.381Z,18.48
2022-12-09T15:53:36.075Z,18.45
2022-12-09T15:56:13.842Z,18.42
2022-12-09T15:58:48.101Z,18.40
2022-12-09T16:01:27.969Z,18.30
2022-12-09T16:03:56.712Z,18.30
2022-12-09T16:06:27.557Z,18.26
2022-12-09T16:08:54.433Z,18.16
2022-12-09T16:11:47.920Z,18.18
2022-12-09T16:14:16.547Z,18.17
2022-12-09T16:16:48.107Z,18.13
2022-12-09T16:19:25.647Z,18.10
2022-12-09T16:21:58.096Z,18.09
2022-12-09T16:24:25.089Z,18.07
2022-12-09T16:26:54.688Z,18.01
2022-12-09T16:29:26.736Z,18.02
2022-12-09T16:32:12.171Z,17.99
2022-12-09T16:34:38.894Z,17.90
2022-12-09T16:37:23.329Z,17.87
2022-12-09T16:39:50.121Z,17.85
2022-12-09T16:42:40.959Z,17.84
2022-12-09T16:45:30.574Z,17.81
2022-12-09T16:47:59.056Z,17.77
2022-12-09T16:50:35.662Z,17.73
2022-12-09T16:53:05.599Z,17.72
2022-12-09T16:55:33.007Z,17.68
2022-12-09T16:58:00.894Z,17.68
2022-12-09T17:00:27.699Z,17.66
2022-12-09T17:03:02.083Z,17.65
2022-12-09T17:05:28.896Z,17.65
2022-12-09T17:07:55.822Z,17.65
2022-12-09T17:10:22.814Z,17.62
2022-12-09T17:12:49.736Z,17.60
2022-12-09T17:15:20.161Z,17.57
2022-12-09T17:17:48.904Z,17.56
2022-12-09T17:20:16.284Z,17.52
2022-12-09T17:22:43.156Z,17.51
2022-12-09T17:25:10.460Z,17.48
2022-12-09T17:27:37.670Z,17.47
2022-12-09T17:30:05.419Z,17.45
2022-12-09T17:32:32.074Z,17.42
2022-12-09T17:34:58.754Z,17.40
2022-12-09T17:37:25.497Z,17.38
2022-12-09T17:39:56.858Z,17.34
2022-12-09T17:42:28.384Z,17.30
2022-12-09T17:44:55.041Z,17.30
2022-12-09T17:47:21.702Z,17.29
2022-12-09T17:49:48.338Z,17.27
2022-12-09T17:52:15.053Z,17.26
2022-12-09T17:54:41.681Z,17.24
2022-12-09T17:57:08.364Z,17.22
2022-12-09T17:59:35.106Z,17.17
2022-12-09T18:02:03.784Z,17.21
2022-12-09T18:04:31.518Z,17.17
2022-12-09T18:06:58.432Z,17.16
2022-12-09T18:09:25.386Z,17.16
2022-12-09T18:11:52.150Z,17.16
2022-12-09T18:14:19.893Z,17.17
2022-12-09T18:16:46.688Z,17.17
2022-12-09T18:19:16.795Z,17.19
2022-12-09T18:21:44.935Z,17.20
2022-12-09T18:24:12.879Z,17.21
2022-12-09T18:26:42.219Z,17.17
2022-12-09T18:29:11.378Z,17.19
2022-12-09T18:31:39.701Z,17.19
2022-12-09T18:34:06.782Z,17.19
2022-12-09T18:36:33.958Z,17.19
2022-12-09T18:39:00.941Z,17.17
2022-12-09T18:41:30.172Z,17.15
2022-12-09T18:43:59.131Z,17.14
2022-12-09T18:46:30.136Z,17.15
2022-12-09T18:48:58.989Z,17.12
2022-12-09T18:51:26.158Z,17.08
2022-12-09T18:53:53.293Z,17.07
2022-12-09T18:56:20.095Z,17.08
2022-12-09T18:59:16.792Z,17.07
2022-12-09T19:01:35.787Z,16.95
2022-12-09T19:04:04.234Z,16.91
2022-12-09T19:06:36.833Z,16.95
2022-12-09T19:09:16.287Z,16.95
2022-12-09T19:11:44.473Z,16.88
2022-12-09T19:14:11.176Z,16.93
2022-12-09T19:16:38.652Z,16.94
2022-12-09T19:19:09.416Z,16.95
2022-12-09T19:21:38.340Z,16.95
2022-12-09T19:24:05.688Z,16.94
2022-12-09T19:26:34.407Z,16.95
2022-12-09T19:29:04.537Z,16.93
2022-12-09T19:31:37.125Z,16.92
2022-12-09T19:34:10.814Z,16.91
2022-12-09T19:36:37.602Z,16.84
2022-12-09T19:39:08.337Z,16.80
2022-12-09T19:41:36.672Z,16.75
2022-12-09T19:44:04.896Z,16.68
2022-12-09T19:46:32.093Z,16.66
2022-12-09T19:48:59.311Z,16.56
2022-12-09T19:51:27.667Z,16.47
2022-12-09T19:53:56.540Z,16.46
2022-12-09T19:56:24.634Z,16.38
2022-12-09T19:58:52.332Z,16.41
2022-12-09T20:01:20.754Z,16.42
2022-12-09T20:03:50.319Z,16.36
2022-12-09T20:06:19.743Z,16.41
2022-12-09T20:08:47.565Z,16.32
2022-12-09T20:11:23.768Z,16.33
2022-12-09T20:13:51.358Z,16.30
2022-12-09T20:16:22.103Z,16.33
2022-12-09T20:18:50.306Z,16.20
2022-12-09T20:21:19.136Z,16.16
2022-12-09T20:23:47.008Z,15.78
2022-12-09T20:26:16.759Z,15.72
2022-12-09T20:28:45.496Z,15.69
2022-12-09T20:31:21.064Z,15.56
2022-12-09T20:33:51.907Z,15.49
2022-12-09T20:36:21.135Z,15.42
2022-12-09T20:38:50.047Z,15.53
2022-12-09T20:41:16.805Z,15.54
2022-12-09T20:43:46.023Z,15.50
2022-12-09T20:46:14.205Z,15.47
2022-12-09T20:48:41.724Z,15.59
2022-12-09T20:51:19.982Z,15.63
2022-12-09T20:53:48.022Z,15.70
2022-12-09T20:56:15.973Z,15.65
2022-12-09T20:58:44.554Z,15.57
2022-12-09T21:01:15.146Z,15.54
2022-12-09T21:03:42.962Z,15.23
2022-12-09T21:06:10.985Z,15.21
2022-12-09T21:08:37.767Z,15.30
2022-12-09T21:11:24.103Z,15.11
2022-12-09T21:14:00.931Z,14.97
2022-12-09T21:16:30.656Z,14.95
2022-12-09T21:19:01.931Z,14.94
2022-12-09T21:21:31.481Z,15.10
2022-12-09T21:23:59.712Z,15.17
2022-12-09T21:26:27.198Z,14.98
2022-12-09T21:28:54.680Z,15.01
2022-12-09T21:31:33.676Z,15.04
2022-12-09T21:34:03.521Z,15.06
2022-12-09T21:36:35.441Z,15.08
2022-12-09T21:39:03.100Z,15.10
2022-12-09T21:41:32.236Z,15.04
2022-12-09T21:43:59.646Z,15.08
2022-12-09T21:46:31.766Z,15.09
2022-12-09T21:49:03.978Z,15.15
2022-12-09T21:51:32.429Z,15.13
2022-12-09T21:54:00.013Z,15.17
2022-12-09T21:56:30.324Z,15.11
2022-12-09T21:58:58.472Z,15.18
2022-12-09T22:01:28.234Z,15.25
2022-12-09T22:03:56.827Z,15.25
2022-12-09T22:06:23.906Z,15.23
2022-12-09T22:08:51.255Z,15.21
2022-12-09T22:11:23.570Z,15.28
2022-12-09T22:13:50.794Z,15.31
2022-12-09T22:16:20.279Z,15.35
2022-12-09T22:18:48.523Z,15.37
2022-12-09T22:21:26.687Z,15.41
2022-12-09T22:23:55.376Z,15.38
2022-12-09T22:26:22.898Z,15.41
2022-12-09T22:28:49.946Z,15.41
2022-12-09T22:31:22.207Z,15.44
2022-12-09T22:33:50.907Z,15.39
2022-12-09T22:36:19.084Z,15.44
2022-12-09T22:38:46.234Z,15.44
2022-12-09T22:41:19.208Z,15.44
2022-12-09T22:43:48.200Z,15.32
2022-12-09T22:46:20.376Z,15.29
2022-12-09T22:48:47.606Z,15.29
2022-12-09T22:51:21.745Z,15.31
2022-12-09T22:53:50.251Z,15.31
2022-12-09T22:56:17.440Z,15.38
2022-12-09T22:58:44.122Z,15.36
2022-12-09T23:01:12.960Z,15.21
2022-12-09T23:03:39.656Z,15.21
2022-12-09T23:06:07.059Z,15.20
2022-12-09T23:08:34.178Z,15.16
2022-12-09T23:11:22.239Z,15.09
2022-12-09T23:13:49.428Z,15.08
2022-12-09T23:16:19.385Z,15.05
2022-12-09T23:18:46.683Z,15.07
2022-12-09T23:21:18.598Z,15.10
2022-12-09T23:23:45.358Z,15.13
2022-12-09T23:26:15.791Z,15.11
2022-12-09T23:28:45.486Z,15.03
2022-12-09T23:31:14.194Z,14.96
2022-12-09T23:33:42.747Z,15.00
2022-12-09T23:36:13.151Z,14.98
2022-12-09T23:38:40.493Z,14.94
2022-12-09T23:41:07.718Z,14.89
2022-12-09T23:43:35.789Z,14.94
2022-12-09T23:46:05.376Z,15.02
2022-12-09T23:48:33.456Z,14.93
2022-12-09T23:51:27.756Z,14.95
2022-12-09T23:53:59.828Z,14.95
2022-12-09T23:56:27.212Z,14.90
2022-12-09T23:59:03.419Z,14.96
